Subzero — VNZ2420 — position and weather

sailwx.info

Track history (hours):
 
Tides and Currents Weather Stations Pressure Air Temp Water Temp Dewpoint Dewpoint Depression Visibility Wind Speed Wind Dir Waves Ship Positions

Subzero

Last reported at 2017-Oct-28 07:46 UTC. Time now 2017-Nov-20 15:22 UTC.
Position S 32°43' E 152°04'.
Warning: this ship's position is 23 days out of date.

Length 12 m.

Type: Sailing vessel. MMSI: 503331900.

Date/timePositionNaut miles runAvg speedWind from/ knotsBaromVisibWave heightAir tempDewpointWater temp
2017-Oct-28 07:46S 32°43' E 152°04'0 0.3
2017-Oct-28 07:30S 32°43' E 152°04'2 3.7
2017-Oct-28 07:00S 32°42' E 152°06'3 5.9
2017-Oct-28 06:30S 32°43' E 152°09'3 5.8
2017-Oct-28 06:00S 32°42' E 152°12'4 6.9
2017-Oct-28 05:29S 32°40' E 152°16'3 7.0
2017-Oct-28 05:00S 32°39' E 152°19'3 5.7
2017-Oct-28 04:30S 32°37' E 152°22'  
2017-Oct-19 01:31S 28°29' E 153°39'1 7.5
2017-Oct-19 01:25S 28°28' E 153°39'3 7.8
2017-Oct-19 01:00S 28°25' E 153°39'4 7.8
2017-Oct-19 00:30S 28°21' E 153°38'4 7.4
2017-Oct-19 00:00S 28°17' E 153°38'4 7.9
2017-Oct-18 23:30S 28°13' E 153°38'3 6.0
2017-Oct-18 23:00S 28°11' E 153°36'4 7.0
2017-Oct-18 22:30S 28°08' E 153°34'3 6.8
2017-Oct-18 22:00S 28°05' E 153°32'3 6.8
2017-Oct-18 21:30S 28°02' E 153°30'4 6.5
2017-Oct-18 20:57S 27°59' E 153°28'3 6.2
2017-Oct-18 20:29S 27°56' E 153°27'2 3.2
2017-Oct-18 20:00S 27°57' E 153°25'  
Track history (hours):
 
Tides and Currents Weather Stations Pressure Air Temp Water Temp Dewpoint Dewpoint Depression Visibility Wind Speed Wind Dir Waves Ship Positions

Subzero

Last reported at 2017-Oct-28 07:46 UTC. Time now 2017-Nov-20 15:22 UTC.
Position S 32°43' E 152°04'.
Warning: this ship's position is 23 days out of date.

Length 12 m.

Type: Sailing vessel. MMSI: 503331900.

Date/timePositionNaut miles runAvg speedWind from/ knotsBaromVisibWave heightAir tempDewpointWater temp
2017-Oct-28 07:46S 32°43' E 152°04'0 0.3
2017-Oct-28 07:30S 32°43' E 152°04'2 3.7
2017-Oct-28 07:00S 32°42' E 152°06'3 5.9
2017-Oct-28 06:30S 32°43' E 152°09'3 5.8
2017-Oct-28 06:00S 32°42' E 152°12'4 6.9
2017-Oct-28 05:29S 32°40' E 152°16'3 7.0
2017-Oct-28 05:00S 32°39' E 152°19'3 5.7
2017-Oct-28 04:30S 32°37' E 152°22'  
2017-Oct-19 01:31S 28°29' E 153°39'1 7.5
2017-Oct-19 01:25S 28°28' E 153°39'3 7.8
2017-Oct-19 01:00S 28°25' E 153°39'4 7.8
2017-Oct-19 00:30S 28°21' E 153°38'4 7.4
2017-Oct-19 00:00S 28°17' E 153°38'4 7.9
2017-Oct-18 23:30S 28°13' E 153°38'3 6.0
2017-Oct-18 23:00S 28°11' E 153°36'4 7.0
2017-Oct-18 22:30S 28°08' E 153°34'3 6.8
2017-Oct-18 22:00S 28°05' E 153°32'3 6.8
2017-Oct-18 21:30S 28°02' E 153°30'4 6.5
2017-Oct-18 20:57S 27°59' E 153°28'3 6.2
2017-Oct-18 20:29S 27°56' E 153°27'2 3.2
2017-Oct-18 20:00S 27°57' E 153°25'  

Dump ship's entire track history